Airfield :
LOGIN :

Register | Disclaimer

   EN    FR    IT 

 










Legend :    VFR   Marginal VFR   IFR   Intensive IFR   Very Intensive IFR
Visi :
Ceiling :
>= 8 km
>= 3000ft
5 to 8 km
1000 to 3000 ft
1500m to 5 km
500 to 1000 ft
800 to 1500m
200 to 500 ft
< 800m
< 200 ft
Symbols :   Thunderstorms  Fog  Heavy snow  Heavy precipitations  Wind > 20 kt
SIGMETs :     Misc.  Thunderstorms  Icing  Turbulence  Mountain Waves  Volcanic Ashes






- Airport Elevation : 231 ft
- IATA code : WTN


EGXW - RAF Waddington

CURRENT METAR :
  • 090921Z 32018KT CAVOK 06/M00 Q1005 NOSIG RMK BLU BLU

EXPIRED METARs :
  • 090850Z 32017G29KT CAVOK 06/00 Q1003 NOSIG RMK BLU BLU
  • 090820Z 32018G29KT 9999 FEW025 06/01 Q1002 NOSIG RMK BLU BLU
  • 090750Z 31018G31KT 9999 FEW035 06/01 Q1001 NOSIG RMK BLU BLU
  • 090720Z 32018G29KT 9999 FEW035 BKN250 07/01 Q0999 NOSIG RMK BLU BLU
  • 090650Z 32018KT 9999 FEW030 BKN250 07/02 Q0998 NOSIG RMK BLU BLU

TAF TAF EGXW
Valid from the 09 at 09:00 until the 10 at 03:00 UTC


090744Z 0909/1003 32015G25KT 9999 FEW025
PROB30
TEMPO 0909/0912 32025G35KT
BECMG 0912/0915 30015KT
BECMG 0919/0922 19007KT



MET'MAP, your aeronautical weather chart ! - Copyright ORBIFLY December 2007 - Disclaimer

ORBIFLY MET'MAP TEAM :

Programming & Development : Alexandra Zaïnal
Concept & original design : Baudouin d'Aumeries
Assistance for programming : Marc-Olivier Méhu
Technical & hardware support : Manuel Goepfert

Contact : metmap@orbifly.com




SOURCES & CREDITS :

   NOAA